createdAt,value
2022-10-31T00:00:26.359Z,99660.88
2022-10-31T00:01:02.171Z,99668.63
2022-10-31T00:01:36.073Z,99684.22
2022-10-31T00:02:10.870Z,99664.63
2022-10-31T00:02:43.614Z,99664.88
2022-10-31T00:03:15.844Z,99664.88
2022-10-31T00:03:51.084Z,99661.38
2022-10-31T00:04:23.251Z,99681.53
2022-10-31T00:04:55.373Z,99672.94
2022-10-31T00:05:30.092Z,99685.31
2022-10-31T00:06:02.824Z,99658.47
2022-10-31T00:06:34.934Z,99657.66
2022-10-31T00:07:09.617Z,99652.53
2022-10-31T00:07:41.681Z,99690.13
2022-10-31T00:08:13.811Z,99650.13
2022-10-31T00:08:48.576Z,99659.00
2022-10-31T00:09:20.750Z,99669.72
2022-10-31T00:09:52.832Z,99656.03
2022-10-31T00:10:27.478Z,99677.22
2022-10-31T00:10:59.635Z,99689.59
2022-10-31T00:11:32.014Z,99659.50
2022-10-31T00:12:07.032Z,99654.66
2022-10-31T00:12:39.101Z,99663.28
2022-10-31T00:13:12.377Z,99661.91
2022-10-31T00:13:47.168Z,99696.56
2022-10-31T00:14:19.258Z,99668.66
2022-10-31T00:14:51.413Z,99682.31
2022-10-31T00:15:26.097Z,99685.25
2022-10-31T00:16:00.873Z,99678.28
2022-10-31T00:16:33.202Z,99667.53
2022-10-31T00:17:07.845Z,99669.44
2022-10-31T00:17:39.981Z,99684.19
2022-10-31T00:18:12.541Z,99656.28
2022-10-31T00:18:47.540Z,99643.94
2022-10-31T00:19:19.612Z,99655.22
2022-10-31T00:19:51.683Z,99700.03
2022-10-31T00:20:26.452Z,99680.44
2022-10-31T00:21:01.640Z,99648.47
2022-10-31T00:21:34.568Z,99665.13
2022-10-31T00:22:09.220Z,99652.22
2022-10-31T00:22:41.362Z,99657.34
2022-10-31T00:23:13.554Z,99687.66
2022-10-31T00:23:48.333Z,99658.16
2022-10-31T00:24:20.477Z,99693.84
2022-10-31T00:24:52.568Z,99656.81
2022-10-31T00:25:24.724Z,99647.16
2022-10-31T00:26:04.368Z,99665.94
2022-10-31T00:26:36.481Z,99681.50
2022-10-31T00:27:08.603Z,99677.97
2022-10-31T00:27:43.294Z,99673.69
2022-10-31T00:28:17.051Z,99662.16
2022-10-31T00:28:49.663Z,99657.59
2022-10-31T00:29:24.339Z,99660.81
2022-10-31T00:29:56.519Z,99667.81
2022-10-31T00:30:28.602Z,99659.75
2022-10-31T00:31:08.576Z,99662.97
2022-10-31T00:31:40.678Z,99687.13
2022-10-31T00:32:12.751Z,99666.19
2022-10-31T00:32:47.603Z,99686.84
2022-10-31T00:33:19.731Z,99675.81
2022-10-31T00:33:51.893Z,99671.28
2022-10-31T00:34:26.849Z,99675.03
2022-10-31T00:34:58.910Z,99691.97
2022-10-31T00:35:31.401Z,99673.97
2022-10-31T00:36:04.111Z,99674.22
2022-10-31T00:36:38.808Z,99677.69
2022-10-31T00:37:10.978Z,99668.84
2022-10-31T00:37:43.075Z,99689.00
2022-10-31T00:38:17.751Z,99682.53
2022-10-31T00:38:50.477Z,99671.25
2022-10-31T00:39:22.565Z,99675.00
2022-10-31T00:39:57.245Z,99675.81
2022-10-31T00:40:29.326Z,99685.47
2022-10-31T00:41:01.443Z,99669.38
2022-10-31T00:41:33.590Z,99667.50
2022-10-31T00:42:08.462Z,99681.19
2022-10-31T00:42:40.944Z,99706.13
2022-10-31T00:43:13.104Z,99660.50
2022-10-31T00:43:45.460Z,99659.19
2022-10-31T00:44:20.347Z,99687.59
2022-10-31T00:44:52.439Z,99664.25
2022-10-31T00:45:25.912Z,99689.75
2022-10-31T00:46:01.280Z,99666.94
2022-10-31T00:46:35.954Z,99663.19
2022-10-31T00:47:08.067Z,99660.50
2022-10-31T00:47:42.854Z,99676.38
2022-10-31T00:48:15.024Z,99659.19
2022-10-31T00:48:47.098Z,99655.69
2022-10-31T00:49:22.647Z,99652.72
2022-10-31T00:49:55.200Z,99650.34
2022-10-31T00:50:27.395Z,99679.03
2022-10-31T00:51:02.734Z,99667.25
2022-10-31T00:51:34.865Z,99659.97
2022-10-31T00:52:07.016Z,99674.50
2022-10-31T00:52:41.733Z,99670.72
2022-10-31T00:53:14.047Z,99650.84
2022-10-31T00:53:46.182Z,99665.88
2022-10-31T00:54:20.881Z,99662.13
2022-10-31T00:54:53.237Z,99656.75
2022-10-31T00:55:26.276Z,99647.59
2022-10-31T00:56:01.642Z,99658.09
2022-10-31T00:56:34.161Z,99663.16
2022-10-31T00:57:06.329Z,99637.16
2022-10-31T00:57:41.094Z,99663.72
2022-10-31T00:59:07.818Z,99638.75
2022-10-31T00:59:41.061Z,99647.84
2022-10-31T01:00:16.490Z,99658.59
2022-10-31T01:00:56.001Z,99657.28
2022-10-31T01:01:31.200Z,99642.25
2022-10-31T01:02:06.309Z,99653.22
2022-10-31T01:02:38.623Z,99659.94
2022-10-31T01:03:14.116Z,99658.59
2022-10-31T01:03:47.390Z,99650.81
2022-10-31T01:04:19.569Z,99629.34
2022-10-31T01:04:54.329Z,99669.03
2022-10-31T01:05:26.866Z,99648.13
2022-10-31T01:06:00.685Z,99672.28
2022-10-31T01:06:35.386Z,99661.56
2022-10-31T01:07:08.045Z,99662.06
2022-10-31T01:07:41.541Z,99661.53
2022-10-31T01:08:17.726Z,99645.16
2022-10-31T01:08:49.934Z,99642.47
2022-10-31T01:09:22.127Z,99649.22
2022-10-31T01:09:56.819Z,99655.88
2022-10-31T01:10:28.989Z,99659.13
2022-10-31T01:11:07.929Z,99637.41
2022-10-31T01:11:42.660Z,99631.75
2022-10-31T01:12:15.298Z,99650.25
2022-10-31T01:12:49.464Z,99662.31
2022-10-31T01:14:16.195Z,99658.25
2022-10-31T01:14:48.382Z,99667.41
2022-10-31T01:15:24.061Z,99647.84
2022-10-31T01:15:59.005Z,99658.81
2022-10-31T01:16:31.448Z,99640.03
2022-10-31T01:17:06.332Z,99642.47
2022-10-31T01:17:41.664Z,99651.31
2022-10-31T01:18:16.536Z,99652.13
2022-10-31T01:18:48.651Z,99657.75
2022-10-31T01:19:23.638Z,99658.81
2022-10-31T01:19:55.840Z,99656.94
2022-10-31T01:20:27.942Z,99665.81
2022-10-31T01:21:02.217Z,99655.59
2022-10-31T01:21:36.905Z,99646.50
2022-10-31T01:22:09.020Z,99671.69
2022-10-31T01:22:41.126Z,99643.25
2022-10-31T01:23:15.789Z,99659.34
2022-10-31T01:23:47.888Z,99666.63
2022-10-31T01:24:19.991Z,99677.88
2022-10-31T01:24:54.718Z,99645.16
2022-10-31T01:25:26.916Z,99638.19
2022-10-31T01:26:04.843Z,99681.66
2022-10-31T01:26:40.765Z,99658.81
2022-10-31T01:27:12.844Z,99673.00
2022-10-31T01:27:44.956Z,99648.88
2022-10-31T01:28:17.089Z,99659.88
2022-10-31T01:28:54.582Z,99668.78
2022-10-31T01:29:26.728Z,99641.66
2022-10-31T01:29:58.834Z,99666.09
2022-10-31T01:30:33.693Z,99652.66
2022-10-31T01:31:08.150Z,99658.84
2022-10-31T01:31:43.540Z,99674.06
2022-10-31T01:32:18.370Z,99653.44
2022-10-31T01:32:50.934Z,99645.66
2022-10-31T01:33:23.166Z,99638.41
2022-10-31T01:33:58.490Z,99632.53
2022-10-31T01:34:30.734Z,99650.78
2022-10-31T01:35:02.956Z,99648.13
2022-10-31T01:35:37.669Z,99625.28
2022-10-31T01:36:15.156Z,99655.88
2022-10-31T01:36:52.484Z,99632.53
2022-10-31T01:37:24.799Z,99644.09
2022-10-31T01:37:56.940Z,99651.88
2022-10-31T01:38:31.791Z,99640.06
2022-10-31T01:39:06.239Z,99640.56
2022-10-31T01:39:38.625Z,99654.78
2022-10-31T01:40:14.237Z,99639.50
2022-10-31T01:40:46.384Z,99662.34
2022-10-31T01:41:21.197Z,99654.56
2022-10-31T01:41:57.865Z,99669.03
2022-10-31T01:42:30.121Z,99642.47
2022-10-31T01:43:02.541Z,99643.56
2022-10-31T01:43:47.728Z,99657.25
2022-10-31T01:44:52.726Z,99658.31
2022-10-31T01:45:27.557Z,99634.69
2022-10-31T01:45:59.710Z,99640.06
2022-10-31T01:46:37.293Z,99653.19
2022-10-31T01:47:19.293Z,99661.25
2022-10-31T01:47:54.064Z,99667.19
2022-10-31T01:48:29.186Z,99669.31
2022-10-31T01:49:08.221Z,99661.81
2022-10-31T01:49:45.821Z,99638.19
2022-10-31T01:50:29.575Z,99637.63
2022-10-31T01:51:05.997Z,99658.56
2022-10-31T01:51:42.849Z,99659.66
2022-10-31T01:52:22.853Z,99648.63
2022-10-31T01:52:58.824Z,99679.72
2022-10-31T01:53:30.978Z,99664.72
2022-10-31T01:54:07.866Z,99652.91
2022-10-31T01:54:47.129Z,99652.13
2022-10-31T01:55:26.458Z,99652.41
2022-10-31T01:56:04.644Z,99647.03
2022-10-31T01:56:42.431Z,99651.06
2022-10-31T01:57:16.593Z,99660.16
2022-10-31T01:57:55.737Z,99650.78
2022-10-31T01:58:31.895Z,99662.34
2022-10-31T01:59:07.450Z,99674.66
2022-10-31T01:59:46.478Z,99671.19
2022-10-31T02:00:21.345Z,99646.75
2022-10-31T02:01:01.816Z,99663.94
2022-10-31T02:01:41.464Z,99652.13
2022-10-31T02:02:14.843Z,99681.94
2022-10-31T02:02:48.967Z,99669.03
2022-10-31T02:03:29.104Z,99656.44
2022-10-31T02:04:02.524Z,99688.09
2022-10-31T02:04:36.278Z,99699.88
2022-10-31T02:05:18.134Z,99654.53
2022-10-31T02:05:51.392Z,99641.88
2022-10-31T02:06:37.526Z,99656.13
2022-10-31T02:07:15.325Z,99690.97
2022-10-31T02:07:53.062Z,99635.72
2022-10-31T02:08:31.414Z,99651.31
2022-10-31T02:09:05.754Z,99651.53
2022-10-31T02:09:39.305Z,99659.31
2022-10-31T02:10:11.498Z,99652.63
2022-10-31T02:10:47.940Z,99669.81
2022-10-31T02:11:20.198Z,99670.63
2022-10-31T02:11:54.177Z,99648.09
2022-10-31T02:12:29.577Z,99666.06
2022-10-31T02:13:07.531Z,99673.28
2022-10-31T02:13:43.013Z,99660.94
2022-10-31T02:14:17.950Z,99671.66
2022-10-31T02:14:51.070Z,99666.88
2022-10-31T02:15:23.255Z,99693.69
2022-10-31T02:15:59.670Z,99672.47
2022-10-31T02:16:31.826Z,99675.72
2022-10-31T02:17:04.714Z,99676.53
2022-10-31T02:17:37.005Z,99680.81
2022-10-31T02:18:12.900Z,99665.81
2022-10-31T02:18:47.885Z,99667.69
2022-10-31T02:19:28.931Z,99687.28
2022-10-31T02:20:12.068Z,99662.56
2022-10-31T02:20:54.105Z,99684.59
2022-10-31T02:21:37.766Z,99665.25
2022-10-31T02:22:16.785Z,99681.91
2022-10-31T02:23:21.687Z,99664.44
2022-10-31T02:24:41.551Z,99683.19
2022-10-31T02:25:30.505Z,99678.63
2022-10-31T02:26:40.664Z,99686.69
2022-10-31T02:27:41.422Z,99714.84
2022-10-31T02:28:32.599Z,99680.50
2022-10-31T02:29:31.144Z,99682.38
2022-10-31T02:30:13.625Z,99691.75
2022-10-31T02:31:15.321Z,99701.16
2022-10-31T02:31:58.639Z,99709.44
2022-10-31T02:32:41.853Z,99697.38
2022-10-31T02:33:27.498Z,99708.09
2022-10-31T02:34:04.177Z,99719.13
2022-10-31T02:34:39.152Z,99722.31
2022-10-31T02:35:24.560Z,99678.06
2022-10-31T02:36:06.074Z,99702.69
2022-10-31T02:36:47.968Z,99684.50
2022-10-31T02:37:27.608Z,99706.50
2022-10-31T02:38:05.310Z,99699.53
2022-10-31T02:38:53.936Z,99707.28
2022-10-31T02:39:45.261Z,99717.25
2022-10-31T02:40:25.340Z,99709.72
2022-10-31T02:41:40.474Z,99707.03
2022-10-31T02:42:24.558Z,99699.81
2022-10-31T02:43:08.967Z,99713.78
2022-10-31T02:43:49.802Z,99741.91
2022-10-31T02:44:31.165Z,99706.50
2022-10-31T02:45:13.622Z,99720.97
2022-10-31T02:45:50.212Z,99727.41
2022-10-31T02:46:29.728Z,99712.91
2022-10-31T02:47:09.199Z,99712.94
2022-10-31T02:47:43.868Z,99721.78
2022-10-31T02:48:20.748Z,99726.63
2022-10-31T02:48:59.425Z,99727.69
2022-10-31T02:49:38.356Z,99727.97
2022-10-31T02:50:15.809Z,99720.75
2022-10-31T02:50:55.014Z,99738.47
2022-10-31T02:51:28.003Z,99720.75
2022-10-31T02:52:00.129Z,99736.34
2022-10-31T02:52:36.875Z,99725.06
2022-10-31T02:53:09.974Z,99737.72
2022-10-31T02:53:42.260Z,99725.63
2022-10-31T02:54:27.134Z,99717.31
2022-10-31T02:54:59.698Z,99723.25
2022-10-31T02:55:51.417Z,99745.22
2022-10-31T02:56:26.097Z,99722.72
2022-10-31T02:57:04.424Z,99719.50
2022-10-31T02:57:37.885Z,99735.06
2022-10-31T02:59:10.212Z,99724.03
2022-10-31T02:59:51.124Z,99732.41
2022-10-31T03:00:23.368Z,99724.88
2022-10-31T03:01:20.163Z,99724.38
2022-10-31T03:02:36.524Z,99756.28
2022-10-31T03:03:13.936Z,99774.00
2022-10-31T03:04:02.499Z,99736.16
2022-10-31T03:05:06.024Z,99727.03
2022-10-31T03:05:49.358Z,99729.44
2022-10-31T03:06:31.857Z,99736.72
2022-10-31T03:07:14.953Z,99740.50
2022-10-31T03:07:58.431Z,99742.91
2022-10-31T03:08:36.861Z,99750.97
2022-10-31T03:09:20.979Z,99744.28
2022-10-31T03:10:01.686Z,99751.25
2022-10-31T03:10:43.979Z,99747.78
2022-10-31T03:11:22.213Z,99751.03
2022-10-31T03:11:59.654Z,99751.31
2022-10-31T03:12:44.549Z,99753.75
2022-10-31T03:13:27.735Z,99746.22
2022-10-31T03:14:04.905Z,99748.66
2022-10-31T03:14:47.266Z,99746.78
2022-10-31T03:15:25.296Z,99753.22
2022-10-31T03:16:11.147Z,99747.84
2022-10-31T03:16:48.194Z,99722.88
2022-10-31T03:17:29.797Z,99745.41
2022-10-31T03:18:07.171Z,99747.56
2022-10-31T03:18:41.992Z,99746.50
2022-10-31T03:19:20.748Z,99758.56
2022-10-31T03:19:57.648Z,99763.13
2022-10-31T03:20:37.719Z,99761.81
2022-10-31T03:21:17.274Z,99768.78
2022-10-31T03:21:54.293Z,99755.66
2022-10-31T03:22:31.807Z,99763.41
2022-10-31T03:23:07.830Z,99760.47
2022-10-31T03:23:44.018Z,99768.53
2022-10-31T03:24:25.756Z,99765.31
2022-10-31T03:24:59.230Z,99766.13
2022-10-31T03:25:35.509Z,99766.69
2022-10-31T03:26:10.777Z,99769.09
2022-10-31T03:26:47.592Z,99749.22
2022-10-31T03:27:27.198Z,99754.59
2022-10-31T03:28:03.929Z,99749.50
2022-10-31T03:28:45.161Z,99748.69
2022-10-31T03:29:25.076Z,99735.28
2022-10-31T03:30:01.872Z,99745.19
2022-10-31T03:30:40.044Z,99755.94
2022-10-31T03:31:20.002Z,99748.41
2022-10-31T03:31:57.222Z,99757.78
2022-10-31T03:32:36.062Z,99761.28
2022-10-31T03:33:14.373Z,99764.19
2022-10-31T03:33:48.325Z,99778.72
2022-10-31T03:34:21.397Z,99772.25
2022-10-31T03:35:00.312Z,99785.44
2022-10-31T03:35:34.615Z,99782.19
2022-10-31T03:36:11.917Z,99793.72
2022-10-31T03:36:48.534Z,99772.78
2022-10-31T03:37:23.387Z,99752.13
2022-10-31T03:37:57.567Z,99774.41
2022-10-31T03:38:33.380Z,99781.66
2022-10-31T03:39:09.426Z,99786.22
2022-10-31T03:39:46.538Z,99770.91
2022-10-31T03:40:24.352Z,99773.03
2022-10-31T03:40:59.609Z,99776.00
2022-10-31T03:41:38.650Z,99791.00
2022-10-31T03:42:15.263Z,99781.38
2022-10-31T03:42:53.306Z,99755.34
2022-10-31T03:43:34.190Z,99780.81
2022-10-31T03:44:12.187Z,99777.31
2022-10-31T03:44:49.645Z,99799.06
2022-10-31T03:45:28.415Z,99783.22
2022-10-31T03:46:00.893Z,99781.59
2022-10-31T03:46:33.524Z,99797.44
2022-10-31T03:47:06.187Z,99801.75
2022-10-31T03:47:45.652Z,99796.38
2022-10-31T03:48:20.193Z,99810.31
2022-10-31T03:48:52.785Z,99775.16
2022-10-31T03:49:29.271Z,99807.38
2022-10-31T03:50:02.958Z,99792.31
2022-10-31T03:50:42.907Z,99794.19
2022-10-31T03:51:24.305Z,99789.91
2022-10-31T03:52:00.937Z,99793.09
2022-10-31T03:52:38.855Z,99811.63
2022-10-31T03:53:20.498Z,99805.47
2022-10-31T03:53:58.432Z,99803.84
2022-10-31T03:54:38.776Z,99799.53
2022-10-31T03:55:19.181Z,99817.25
2022-10-31T03:55:57.998Z,99811.34
2022-10-31T03:56:37.699Z,99804.38
2022-10-31T03:57:17.876Z,99802.75
2022-10-31T03:57:54.462Z,99812.94
2022-10-31T03:58:33.646Z,99809.44
2022-10-31T03:59:15.088Z,99804.34
2022-10-31T03:59:53.148Z,99790.09
2022-10-31T04:00:28.154Z,99793.03
2022-10-31T04:01:02.143Z,99817.19
2022-10-31T04:01:38.543Z,99808.06
2022-10-31T04:02:18.823Z,99816.41
2022-10-31T04:02:59.254Z,99819.88
2022-10-31T04:03:37.125Z,99815.28
2022-10-31T04:04:13.022Z,99829.50
2022-10-31T04:04:47.628Z,99835.69
2022-10-31T04:05:21.618Z,99833.28
2022-10-31T04:06:00.776Z,99818.78
2022-10-31T04:06:35.872Z,99841.88
2022-10-31T04:07:09.320Z,99830.31
2022-10-31T04:07:48.737Z,99827.91
2022-10-31T04:08:26.889Z,99811.25
2022-10-31T04:09:04.784Z,99818.50
2022-10-31T04:09:42.521Z,99823.56
2022-10-31T04:10:17.119Z,99808.53
2022-10-31T04:10:51.166Z,99820.63
2022-10-31T04:11:32.569Z,99816.88
2022-10-31T04:12:26.615Z,99832.44
2022-10-31T04:13:23.488Z,99847.16
2022-10-31T04:14:06.022Z,99823.81
2022-10-31T04:14:43.540Z,99832.66
2022-10-31T04:15:18.524Z,99843.41
2022-10-31T04:15:53.313Z,99837.78
2022-10-31T04:16:28.769Z,99847.97
2022-10-31T04:17:06.048Z,99843.69
2022-10-31T04:17:46.312Z,99831.06
2022-10-31T04:18:21.237Z,99836.41
2022-10-31T04:18:56.870Z,99833.72
2022-10-31T04:19:28.989Z,99823.00
2022-10-31T04:20:01.396Z,99819.53
2022-10-31T04:20:36.073Z,99836.41
2022-10-31T04:21:12.276Z,99826.50
2022-10-31T04:21:44.506Z,99830.25
2022-10-31T04:22:16.797Z,99848.78
2022-10-31T04:22:51.835Z,99854.13
2022-10-31T04:23:27.148Z,99851.22
2022-10-31T04:23:59.806Z,99850.41
2022-10-31T04:24:37.871Z,99850.63
2022-10-31T04:25:10.445Z,99854.94
2022-10-31T04:25:43.944Z,99843.41
2022-10-31T04:26:18.925Z,99858.44
2022-10-31T04:26:52.301Z,99828.38
2022-10-31T04:27:25.515Z,99855.19
2022-10-31T04:28:01.129Z,99855.19
2022-10-31T04:28:34.866Z,99869.41
2022-10-31T04:29:07.776Z,99856.00
2022-10-31T04:29:45.479Z,99854.13
2022-10-31T04:30:20.611Z,99845.78
2022-10-31T04:30:53.052Z,99856.78
2022-10-31T04:31:27.739Z,99861.09
2022-10-31T04:31:59.909Z,99861.59
2022-10-31T04:32:33.084Z,99855.19
2022-10-31T04:33:07.817Z,99864.28
2022-10-31T04:33:43.318Z,99834.22
2022-10-31T04:34:15.583Z,99859.16
2022-10-31T04:34:50.351Z,99854.06
2022-10-31T04:35:23.756Z,99868.56
2022-10-31T04:35:55.945Z,99878.47
2022-10-31T04:36:30.635Z,99864.00
2022-10-31T04:37:03.754Z,99868.56
2022-10-31T04:37:36.033Z,99867.72
2022-10-31T04:38:11.511Z,99869.34
2022-10-31T04:38:44.896Z,99862.63
2022-10-31T04:39:33.023Z,99872.81
2022-10-31T04:40:23.746Z,99870.06
2022-10-31T04:40:58.381Z,99852.91
2022-10-31T04:41:59.247Z,99872.19
2022-10-31T04:42:31.646Z,99876.25
2022-10-31T04:43:06.125Z,99852.38
2022-10-31T04:43:41.163Z,99862.56
2022-10-31T04:44:13.312Z,99862.56
2022-10-31T04:44:45.440Z,99875.97
2022-10-31T04:45:21.352Z,99874.94
2022-10-31T04:45:56.779Z,99880.28
2022-10-31T04:46:28.971Z,99873.88
2022-10-31T04:47:05.425Z,99882.72
2022-10-31T04:47:37.526Z,99878.41
2022-10-31T04:48:09.620Z,99882.72
2022-10-31T04:48:47.917Z,99882.44
2022-10-31T04:49:20.076Z,99884.31
2022-10-31T04:49:52.227Z,99890.50
2022-10-31T04:50:26.972Z,99878.72
2022-10-31T04:51:00.656Z,99891.31
2022-10-31T04:51:33.040Z,99881.97
2022-10-31T04:52:09.225Z,99879.28
2022-10-31T04:52:42.060Z,99882.44
2022-10-31T04:53:15.709Z,99874.16
2022-10-31T04:54:09.420Z,99874.94
2022-10-31T04:55:00.201Z,99870.06
2022-10-31T04:55:57.501Z,99889.91
2022-10-31T04:56:31.293Z,99885.09
2022-10-31T04:57:06.232Z,99896.09
2022-10-31T04:57:42.063Z,99906.00
2022-10-31T04:59:12.585Z,99896.03
2022-10-31T04:59:55.288Z,99910.44
2022-10-31T05:00:29.453Z,99900.53
2022-10-31T05:01:01.862Z,99916.13
2022-10-31T05:01:36.814Z,99911.06
2022-10-31T05:02:09.474Z,99910.00
2022-10-31T05:03:00.762Z,99910.25
2022-10-31T05:03:36.189Z,99910.25
2022-10-31T05:04:11.167Z,99928.78
2022-10-31T05:04:43.679Z,99928.22
2022-10-31T05:05:20.270Z,99932.53
2022-10-31T05:05:52.928Z,99935.22
2022-10-31T05:06:25.339Z,99934.16
2022-10-31T05:07:00.236Z,99925.28
2022-10-31T05:07:32.910Z,99935.22
2022-10-31T05:08:05.385Z,99934.16
2022-10-31T05:08:40.944Z,99929.56
2022-10-31T05:09:14.059Z,99939.75
2022-10-31T05:09:46.162Z,99943.25
2022-10-31T05:10:24.315Z,99939.75
2022-10-31T05:11:04.178Z,99925.53
2022-10-31T05:11:37.347Z,99926.88
2022-10-31T05:12:27.945Z,99932.72
2022-10-31T05:13:12.638Z,99941.28
2022-10-31T05:14:05.750Z,99949.25
2022-10-31T05:15:05.305Z,99936.63
2022-10-31T05:15:58.600Z,99936.03
2022-10-31T05:17:02.840Z,99941.91
2022-10-31T05:17:59.072Z,99948.09
2022-10-31T05:19:00.613Z,99949.41
2022-10-31T05:19:56.586Z,99947.53
2022-10-31T05:21:00.158Z,99962.00
2022-10-31T05:21:42.940Z,99953.69
2022-10-31T05:22:16.732Z,99956.13
2022-10-31T05:22:50.948Z,99962.06
2022-10-31T05:23:25.816Z,99939.81
2022-10-31T05:23:57.904Z,99951.34
2022-10-31T05:24:30.344Z,99951.06
2022-10-31T05:25:05.029Z,99954.31
2022-10-31T05:25:37.311Z,99961.03
2022-10-31T05:26:10.099Z,99954.63
2022-10-31T05:26:44.876Z,99965.09
2022-10-31T05:27:18.408Z,99967.50
2022-10-31T05:27:51.862Z,99963.25
2022-10-31T05:28:26.669Z,99967.50
2022-10-31T05:28:59.620Z,99961.91
2022-10-31T05:29:34.580Z,99970.78
2022-10-31T05:30:11.800Z,99960.03
2022-10-31T05:30:43.930Z,99963.53
2022-10-31T05:31:19.450Z,99972.41
2022-10-31T05:31:54.359Z,99984.72
2022-10-31T05:32:46.558Z,99982.56
2022-10-31T05:33:44.014Z,99968.84
2022-10-31T05:34:34.497Z,99973.91
2022-10-31T05:35:36.261Z,99984.63
2022-10-31T05:36:23.390Z,99992.34
2022-10-31T05:37:21.340Z,99976.25
2022-10-31T05:37:53.769Z,99991.03
2022-10-31T05:38:25.956Z,99983.81
2022-10-31T05:39:02.266Z,99989.72
2022-10-31T05:39:40.437Z,99983.00
2022-10-31T05:40:20.205Z,99992.41
2022-10-31T05:40:58.722Z,99994.03
2022-10-31T05:41:31.283Z,99996.72
2022-10-31T05:42:16.593Z,100007.19
2022-10-31T05:42:51.684Z,99991.91
2022-10-31T05:43:23.775Z,99991.41
2022-10-31T05:43:55.901Z,99997.59
2022-10-31T05:44:36.054Z,100007.25
2022-10-31T05:45:19.669Z,99998.41
2022-10-31T05:45:58.351Z,100011.53
2022-10-31T05:46:51.667Z,99993.28
2022-10-31T05:47:42.852Z,99997.28
2022-10-31T05:48:49.596Z,100015.47
2022-10-31T05:49:40.087Z,99995.66
2022-10-31T05:50:36.491Z,99995.91
2022-10-31T05:51:15.111Z,100006.63
2022-10-31T05:51:47.187Z,100004.50
2022-10-31T05:52:22.365Z,100017.66
2022-10-31T05:53:06.263Z,100019.53
2022-10-31T05:53:45.985Z,100027.31
2022-10-31T05:54:18.402Z,100026.03
2022-10-31T05:54:51.756Z,100015.31
2022-10-31T05:55:26.760Z,100016.13
2022-10-31T05:56:10.055Z,100028.94
2022-10-31T05:56:42.452Z,100032.22
2022-10-31T05:57:17.910Z,100039.44
2022-10-31T05:57:50.074Z,100037.81
2022-10-31T05:58:25.043Z,100036.47
2022-10-31T05:59:07.209Z,100028.94
2022-10-31T05:59:39.364Z,100034.06
2022-10-31T06:00:15.420Z,100035.94
2022-10-31T06:00:56.145Z,100030.28
2022-10-31T06:01:28.623Z,100035.63
2022-10-31T06:02:05.771Z,100043.69
2022-10-31T06:03:01.129Z,100036.13
2022-10-31T06:03:48.968Z,100024.84
2022-10-31T06:04:22.392Z,100037.16
2022-10-31T06:04:54.710Z,100020.84
2022-10-31T06:05:30.967Z,100036.13
2022-10-31T06:06:06.131Z,100041.47
2022-10-31T06:06:42.359Z,100041.75
2022-10-31T06:07:17.073Z,100045.78
2022-10-31T06:07:49.671Z,100050.09
2022-10-31T06:08:22.037Z,100046.91
2022-10-31T06:08:57.766Z,100045.84
2022-10-31T06:09:31.425Z,100063.31
2022-10-31T06:10:06.235Z,100057.69
2022-10-31T06:10:41.174Z,100056.06
2022-10-31T06:11:13.311Z,100056.88
2022-10-31T06:12:17.656Z,100050.09
2022-10-31T06:13:18.129Z,100039.84
2022-10-31T06:13:53.907Z,100046.84
2022-10-31T06:14:30.468Z,100059.19
2022-10-31T06:15:06.300Z,100043.91
2022-10-31T06:15:38.423Z,100049.81
2022-10-31T06:16:13.164Z,100053.31
2022-10-31T06:16:48.135Z,100056.56
2022-10-31T06:17:40.493Z,100068.28
2022-10-31T06:18:29.850Z,100068.28
2022-10-31T06:19:02.114Z,100069.91
2022-10-31T06:19:34.269Z,100074.78
2022-10-31T06:20:10.838Z,100071.03
2022-10-31T06:20:53.317Z,100072.09
2022-10-31T06:21:30.788Z,100073.47
2022-10-31T06:22:03.551Z,100078.56
2022-10-31T06:22:35.788Z,100066.78
2022-10-31T06:23:10.548Z,100085.34
2022-10-31T06:23:43.756Z,100074.59
2022-10-31T06:24:35.462Z,100066.25
2022-10-31T06:25:28.330Z,100075.84
2022-10-31T06:26:03.070Z,100075.34
2022-10-31T06:26:35.342Z,100064.63
2022-10-31T06:27:08.090Z,100079.09
2022-10-31T06:27:40.336Z,100081.75
2022-10-31T06:28:21.567Z,100079.31
2022-10-31T06:29:14.498Z,100092.41
2022-10-31T06:30:04.295Z,100083.31
2022-10-31T06:30:37.866Z,100080.66
2022-10-31T06:31:12.652Z,100086.59
2022-10-31T06:31:44.816Z,100085.50
2022-10-31T06:32:17.224Z,100090.88
2022-10-31T06:32:53.268Z,100087.72
2022-10-31T06:33:25.926Z,100093.88
2022-10-31T06:34:06.844Z,100094.66
2022-10-31T06:34:41.670Z,100087.44
2022-10-31T06:35:14.812Z,100094.66
2022-10-31T06:35:48.301Z,100097.34
2022-10-31T06:36:24.422Z,100102.72
2022-10-31T06:37:01.535Z,100099.25
2022-10-31T06:37:34.915Z,100100.03
2022-10-31T06:38:19.532Z,100101.13
2022-10-31T06:38:52.371Z,100094.94
2022-10-31T06:39:27.533Z,100086.06
2022-10-31T06:40:02.720Z,100108.34
2022-10-31T06:40:39.538Z,100109.16
2022-10-31T06:41:25.521Z,100104.59
2022-10-31T06:41:59.429Z,100107.53
2022-10-31T06:42:32.806Z,100119.88
2022-10-31T06:43:09.244Z,100110.22
2022-10-31T06:43:41.436Z,100113.44
2022-10-31T06:44:35.116Z,100108.03
2022-10-31T06:45:26.302Z,100108.28
2022-10-31T06:46:29.634Z,100091.06
2022-10-31T06:47:14.028Z,100099.09
2022-10-31T06:48:16.730Z,100097.25
2022-10-31T06:49:09.496Z,100109.00
2022-10-31T06:49:49.811Z,100122.19
2022-10-31T06:50:25.784Z,100105.84
2022-10-31T06:50:59.853Z,100106.41
2022-10-31T06:51:35.178Z,100105.34
2022-10-31T06:52:10.323Z,100109.41
2022-10-31T06:52:42.428Z,100106.94
2022-10-31T06:53:17.893Z,100072.09
2022-10-31T06:53:50.049Z,100100.78
2022-10-31T06:54:23.228Z,100107.53
2022-10-31T06:54:58.129Z,100104.03
2022-10-31T06:55:30.259Z,100119.31
2022-10-31T06:56:02.504Z,100107.53
2022-10-31T06:56:39.215Z,100131.91
2022-10-31T06:57:11.674Z,100119.53
2022-10-31T06:57:50.800Z,100113.63
2022-10-31T06:58:25.493Z,100101.28
2022-10-31T06:59:01.023Z,100116.31
2022-10-31T06:59:55.637Z,100114.69
2022-10-31T07:00:37.386Z,100117.38
2022-10-31T07:01:15.489Z,100102.09
2022-10-31T07:01:47.960Z,100104.78
2022-10-31T07:02:20.225Z,100123.31
2022-10-31T07:02:59.133Z,100105.34
2022-10-31T07:03:31.377Z,100120.63
2022-10-31T07:04:03.582Z,100123.03
2022-10-31T07:04:42.163Z,100103.22
2022-10-31T07:05:16.520Z,100116.63
2022-10-31T07:05:48.735Z,100118.25
2022-10-31T07:06:23.791Z,100124.44
2022-10-31T07:06:55.939Z,100107.28
2022-10-31T07:07:30.793Z,100115.06
2022-10-31T07:08:08.189Z,100113.72
2022-10-31T07:08:40.267Z,100121.75
2022-10-31T07:09:12.918Z,100120.69
2022-10-31T07:09:47.708Z,100127.66
2022-10-31T07:10:22.708Z,100123.38
2022-10-31T07:11:05.968Z,100128.97
2022-10-31T07:11:39.024Z,100128.97
2022-10-31T07:12:11.433Z,100140.25
2022-10-31T07:12:51.210Z,100123.13
2022-10-31T07:13:26.684Z,100129.28
2022-10-31T07:14:09.560Z,100114.25
2022-10-31T07:14:41.648Z,100124.16
2022-10-31T07:15:13.923Z,100126.06
2022-10-31T07:15:48.671Z,100112.66
2022-10-31T07:16:20.961Z,100115.06
2022-10-31T07:16:55.768Z,100106.22
2022-10-31T07:17:34.581Z,100103.78
2022-10-31T07:18:11.599Z,100126.06
2022-10-31T07:18:43.853Z,100123.84
2022-10-31T07:19:20.547Z,100129.50
2022-10-31T07:19:52.718Z,100126.47
2022-10-31T07:20:24.900Z,100105.00